sensor_id;sensor_type;location;lat;lon;timestamp;P1;durP1;ratioP1;P2;durP2;ratioP2
23206;SDS011;11773;52.570;13.052;2024-02-28T00:01:56;3.03;;;2.70;;
23206;SDS011;11773;52.570;13.052;2024-02-28T00:04:26;4.20;;;3.13;;
23206;SDS011;11773;52.570;13.052;2024-02-28T00:06:55;3.70;;;2.93;;
23206;SDS011;11773;52.570;13.052;2024-02-28T00:09:25;4.43;;;3.13;;
23206;SDS011;11773;52.570;13.052;2024-02-28T00:11:55;3.90;;;3.13;;
23206;SDS011;11773;52.570;13.052;2024-02-28T00:14:24;3.27;;;2.57;;
23206;SDS011;11773;52.570;13.052;2024-02-28T00:16:54;3.60;;;2.67;;
23206;SDS011;11773;52.570;13.052;2024-02-28T00:19:24;3.10;;;2.37;;
23206;SDS011;11773;52.570;13.052;2024-02-28T00:21:53;3.27;;;2.93;;
23206;SDS011;11773;52.570;13.052;2024-02-28T00:24:23;3.30;;;2.50;;
23206;SDS011;11773;52.570;13.052;2024-02-28T00:26:53;2.87;;;2.57;;
23206;SDS011;11773;52.570;13.052;2024-02-28T00:29:22;2.60;;;1.90;;
23206;SDS011;11773;52.570;13.052;2024-02-28T00:31:52;2.47;;;2.20;;
23206;SDS011;11773;52.570;13.052;2024-02-28T00:34:21;3.57;;;2.80;;
23206;SDS011;11773;52.570;13.052;2024-02-28T00:36:51;3.43;;;2.60;;
23206;SDS011;11773;52.570;13.052;2024-02-28T00:39:22;2.87;;;2.10;;
23206;SDS011;11773;52.570;13.052;2024-02-28T00:41:52;2.90;;;2.13;;
23206;SDS011;11773;52.570;13.052;2024-02-28T00:44:21;4.30;;;3.27;;
23206;SDS011;11773;52.570;13.052;2024-02-28T00:46:51;2.97;;;2.50;;
23206;SDS011;11773;52.570;13.052;2024-02-28T00:49:20;2.67;;;2.43;;
23206;SDS011;11773;52.570;13.052;2024-02-28T00:51:50;4.03;;;3.30;;
23206;SDS011;11773;52.570;13.052;2024-02-28T00:54:20;3.13;;;2.50;;
23206;SDS011;11773;52.570;13.052;2024-02-28T00:56:50;3.23;;;2.60;;
23206;SDS011;11773;52.570;13.052;2024-02-28T00:59:20;4.63;;;3.40;;
23206;SDS011;11773;52.570;13.052;2024-02-28T01:01:50;3.83;;;3.00;;
23206;SDS011;11773;52.570;13.052;2024-02-28T01:04:19;3.33;;;2.90;;
23206;SDS011;11773;52.570;13.052;2024-02-28T01:06:49;5.97;;;4.60;;
23206;SDS011;11773;52.570;13.052;2024-02-28T01:09:18;4.80;;;3.87;;
23206;SDS011;11773;52.570;13.052;2024-02-28T01:11:49;4.67;;;3.57;;
23206;SDS011;11773;52.570;13.052;2024-02-28T01:14:19;3.23;;;2.63;;
23206;SDS011;11773;52.570;13.052;2024-02-28T01:16:48;5.03;;;3.77;;
23206;SDS011;11773;52.570;13.052;2024-02-28T01:19:18;4.03;;;3.13;;
23206;SDS011;11773;52.570;13.052;2024-02-28T01:21:47;2.90;;;2.27;;
23206;SDS011;11773;52.570;13.052;2024-02-28T01:24:17;2.83;;;2.53;;
23206;SDS011;11773;52.570;13.052;2024-02-28T01:26:47;2.47;;;1.90;;
23206;SDS011;11773;52.570;13.052;2024-02-28T01:29:16;2.77;;;2.00;;
23206;SDS011;11773;52.570;13.052;2024-02-28T01:31:46;2.53;;;1.93;;
23206;SDS011;11773;52.570;13.052;2024-02-28T01:34:15;2.63;;;2.17;;
23206;SDS011;11773;52.570;13.052;2024-02-28T01:36:45;2.20;;;2.00;;
23206;SDS011;11773;52.570;13.052;2024-02-28T01:39:15;2.90;;;2.50;;
23206;SDS011;11773;52.570;13.052;2024-02-28T01:41:52;3.00;;;2.67;;
23206;SDS011;11773;52.570;13.052;2024-02-28T01:44:22;3.20;;;2.63;;
23206;SDS011;11773;52.570;13.052;2024-02-28T01:46:52;2.80;;;2.30;;
23206;SDS011;11773;52.570;13.052;2024-02-28T01:49:23;3.53;;;2.40;;
23206;SDS011;11773;52.570;13.052;2024-02-28T01:51:53;3.20;;;2.57;;
23206;SDS011;11773;52.570;13.052;2024-02-28T01:54:24;4.03;;;2.50;;
23206;SDS011;11773;52.570;13.052;2024-02-28T01:56:57;3.03;;;2.30;;
23206;SDS011;11773;52.570;13.052;2024-02-28T01:59:27;4.17;;;3.20;;
23206;SDS011;11773;52.570;13.052;2024-02-28T02:01:59;3.77;;;3.07;;
23206;SDS011;11773;52.570;13.052;2024-02-28T02:04:28;3.77;;;2.57;;
23206;SDS011;11773;52.570;13.052;2024-02-28T02:06:58;3.13;;;2.50;;
23206;SDS011;11773;52.570;13.052;2024-02-28T02:09:28;3.23;;;2.50;;
23206;SDS011;11773;52.570;13.052;2024-02-28T02:11:57;3.30;;;2.40;;
23206;SDS011;11773;52.570;13.052;2024-02-28T02:14:27;3.83;;;3.10;;
23206;SDS011;11773;52.570;13.052;2024-02-28T02:16:57;3.80;;;3.10;;
23206;SDS011;11773;52.570;13.052;2024-02-28T02:19:26;3.03;;;2.50;;
23206;SDS011;11773;52.570;13.052;2024-02-28T02:22:00;3.17;;;2.30;;
23206;SDS011;11773;52.570;13.052;2024-02-28T02:24:29;3.47;;;2.90;;
23206;SDS011;11773;52.570;13.052;2024-02-28T02:26:58;3.20;;;2.40;;
23206;SDS011;11773;52.570;13.052;2024-02-28T02:29:28;3.60;;;2.73;;
23206;SDS011;11773;52.570;13.052;2024-02-28T02:31:58;2.37;;;2.00;;
23206;SDS011;11773;52.570;13.052;2024-02-28T02:34:28;2.60;;;2.37;;
23206;SDS011;11773;52.570;13.052;2024-02-28T02:36:58;2.70;;;2.40;;
23206;SDS011;11773;52.570;13.052;2024-02-28T02:39:27;3.70;;;2.90;;
23206;SDS011;11773;52.570;13.052;2024-02-28T02:41:57;3.07;;;2.50;;
23206;SDS011;11773;52.570;13.052;2024-02-28T02:44:26;3.27;;;2.90;;
23206;SDS011;11773;52.570;13.052;2024-02-28T02:46:56;2.37;;;1.83;;
23206;SDS011;11773;52.570;13.052;2024-02-28T02:49:25;2.90;;;2.53;;
23206;SDS011;11773;52.570;13.052;2024-02-28T02:51:55;2.67;;;2.07;;
23206;SDS011;11773;52.570;13.052;2024-02-28T02:54:24;2.20;;;1.97;;
23206;SDS011;11773;52.570;13.052;2024-02-28T02:56:54;2.50;;;2.03;;
23206;SDS011;11773;52.570;13.052;2024-02-28T02:59:24;2.20;;;1.93;;
23206;SDS011;11773;52.570;13.052;2024-02-28T03:01:53;1.67;;;1.47;;
23206;SDS011;11773;52.570;13.052;2024-02-28T03:04:23;1.63;;;1.40;;
23206;SDS011;11773;52.570;13.052;2024-02-28T03:06:52;2.23;;;2.03;;
23206;SDS011;11773;52.570;13.052;2024-02-28T03:09:22;2.23;;;1.83;;
23206;SDS011;11773;52.570;13.052;2024-02-28T03:11:52;1.90;;;1.70;;
23206;SDS011;11773;52.570;13.052;2024-02-28T03:14:21;2.37;;;1.93;;
23206;SDS011;11773;52.570;13.052;2024-02-28T03:16:52;1.57;;;1.37;;
23206;SDS011;11773;52.570;13.052;2024-02-28T03:19:22;2.03;;;1.73;;
23206;SDS011;11773;52.570;13.052;2024-02-28T03:21:52;2.63;;;1.90;;
23206;SDS011;11773;52.570;13.052;2024-02-28T03:24:21;2.23;;;1.93;;
23206;SDS011;11773;52.570;13.052;2024-02-28T03:26:51;2.40;;;1.90;;
23206;SDS011;11773;52.570;13.052;2024-02-28T03:29:21;2.23;;;1.80;;
23206;SDS011;11773;52.570;13.052;2024-02-28T03:31:51;1.80;;;1.47;;
23206;SDS011;11773;52.570;13.052;2024-02-28T03:34:20;2.20;;;1.80;;
23206;SDS011;11773;52.570;13.052;2024-02-28T03:36:50;1.83;;;1.57;;
23206;SDS011;11773;52.570;13.052;2024-02-28T03:39:20;2.57;;;2.00;;
23206;SDS011;11773;52.570;13.052;2024-02-28T03:41:49;2.10;;;1.77;;
23206;SDS011;11773;52.570;13.052;2024-02-28T03:44:19;1.53;;;1.43;;
23206;SDS011;11773;52.570;13.052;2024-02-28T03:46:48;1.50;;;1.30;;
23206;SDS011;11773;52.570;13.052;2024-02-28T03:49:18;0.80;;;0.73;;
23206;SDS011;11773;52.570;13.052;2024-02-28T03:51:48;1.20;;;1.10;;
23206;SDS011;11773;52.570;13.052;2024-02-28T03:54:17;1.73;;;1.43;;
23206;SDS011;11773;52.570;13.052;2024-02-28T03:56:47;1.50;;;1.40;;
23206;SDS011;11773;52.570;13.052;2024-02-28T03:59:17;1.47;;;1.30;;
23206;SDS011;11773;52.570;13.052;2024-02-28T04:01:46;1.30;;;1.20;;
23206;SDS011;11773;52.570;13.052;2024-02-28T04:04:16;1.40;;;1.17;;
23206;SDS011;11773;52.570;13.052;2024-02-28T04:06:46;1.43;;;1.13;;
23206;SDS011;11773;52.570;13.052;2024-02-28T04:09:15;1.30;;;1.20;;
23206;SDS011;11773;52.570;13.052;2024-02-28T04:11:45;1.40;;;1.30;;
23206;SDS011;11773;52.570;13.052;2024-02-28T04:14:15;1.23;;;1.13;;
23206;SDS011;11773;52.570;13.052;2024-02-28T04:16:44;1.50;;;1.27;;
23206;SDS011;11773;52.570;13.052;2024-02-28T04:19:14;1.10;;;1.00;;
23206;SDS011;11773;52.570;13.052;2024-02-28T04:21:44;1.30;;;1.20;;
23206;SDS011;11773;52.570;13.052;2024-02-28T04:24:13;1.20;;;1.10;;
23206;SDS011;11773;52.570;13.052;2024-02-28T04:26:44;1.40;;;0.90;;
23206;SDS011;11773;52.570;13.052;2024-02-28T04:29:13;1.00;;;0.93;;
23206;SDS011;11773;52.570;13.052;2024-02-28T04:31:43;1.17;;;1.03;;
23206;SDS011;11773;52.570;13.052;2024-02-28T04:34:12;1.00;;;0.90;;
23206;SDS011;11773;52.570;13.052;2024-02-28T04:36:42;1.40;;;1.30;;
23206;SDS011;11773;52.570;13.052;2024-02-28T04:39:12;1.53;;;1.43;;
23206;SDS011;11773;52.570;13.052;2024-02-28T04:41:41;1.67;;;1.13;;
23206;SDS011;11773;52.570;13.052;2024-02-28T04:44:11;1.43;;;1.23;;
23206;SDS011;11773;52.570;13.052;2024-02-28T04:46:40;1.53;;;1.43;;
23206;SDS011;11773;52.570;13.052;2024-02-28T04:49:10;1.70;;;1.57;;
23206;SDS011;11773;52.570;13.052;2024-02-28T04:51:40;1.20;;;1.10;;
23206;SDS011;11773;52.570;13.052;2024-02-28T04:54:09;1.27;;;1.17;;
23206;SDS011;11773;52.570;13.052;2024-02-28T04:56:39;0.80;;;0.80;;
23206;SDS011;11773;52.570;13.052;2024-02-28T04:59:13;1.30;;;1.20;;
23206;SDS011;11773;52.570;13.052;2024-02-28T05:01:42;1.10;;;1.00;;
23206;SDS011;11773;52.570;13.052;2024-02-28T05:04:13;1.37;;;1.20;;
23206;SDS011;11773;52.570;13.052;2024-02-28T05:06:42;1.87;;;1.60;;
23206;SDS011;11773;52.570;13.052;2024-02-28T05:09:12;1.63;;;1.37;;
23206;SDS011;11773;52.570;13.052;2024-02-28T05:11:42;1.40;;;1.30;;
23206;SDS011;11773;52.570;13.052;2024-02-28T05:14:13;2.00;;;1.67;;
23206;SDS011;11773;52.570;13.052;2024-02-28T05:16:42;2.53;;;2.00;;
23206;SDS011;11773;52.570;13.052;2024-02-28T05:19:12;1.90;;;1.67;;
23206;SDS011;11773;52.570;13.052;2024-02-28T05:21:43;1.87;;;1.77;;
23206;SDS011;11773;52.570;13.052;2024-02-28T05:24:15;2.50;;;2.00;;
23206;SDS011;11773;52.570;13.052;2024-02-28T05:26:45;1.70;;;1.60;;
23206;SDS011;11773;52.570;13.052;2024-02-28T05:29:14;2.00;;;1.80;;
23206;SDS011;11773;52.570;13.052;2024-02-28T05:31:44;1.80;;;1.70;;
23206;SDS011;11773;52.570;13.052;2024-02-28T05:34:13;2.13;;;1.93;;
23206;SDS011;11773;52.570;13.052;2024-02-28T05:36:43;1.67;;;1.57;;
23206;SDS011;11773;52.570;13.052;2024-02-28T05:39:13;2.10;;;1.73;;
23206;SDS011;11773;52.570;13.052;2024-02-28T05:41:43;1.63;;;1.40;;
23206;SDS011;11773;52.570;13.052;2024-02-28T05:44:13;1.70;;;1.57;;
23206;SDS011;11773;52.570;13.052;2024-02-28T05:46:42;1.70;;;1.60;;
23206;SDS011;11773;52.570;13.052;2024-02-28T05:49:12;1.90;;;1.67;;
23206;SDS011;11773;52.570;13.052;2024-02-28T05:51:42;1.93;;;1.53;;
23206;SDS011;11773;52.570;13.052;2024-02-28T05:54:13;1.93;;;1.67;;
23206;SDS011;11773;52.570;13.052;2024-02-28T05:56:43;2.10;;;1.80;;
23206;SDS011;11773;52.570;13.052;2024-02-28T05:59:12;1.60;;;1.50;;
23206;SDS011;11773;52.570;13.052;2024-02-28T06:01:43;1.70;;;1.60;;
23206;SDS011;11773;52.570;13.052;2024-02-28T06:04:13;2.60;;;2.10;;
23206;SDS011;11773;52.570;13.052;2024-02-28T06:06:42;2.60;;;2.10;;
23206;SDS011;11773;52.570;13.052;2024-02-28T06:09:12;1.90;;;1.70;;
23206;SDS011;11773;52.570;13.052;2024-02-28T06:11:42;2.37;;;1.93;;
23206;SDS011;11773;52.570;13.052;2024-02-28T06:14:12;2.83;;;2.40;;
23206;SDS011;11773;52.570;13.052;2024-02-28T06:16:41;3.20;;;2.40;;
23206;SDS011;11773;52.570;13.052;2024-02-28T06:19:11;2.77;;;2.33;;
23206;SDS011;11773;52.570;13.052;2024-02-28T06:21:41;2.40;;;2.20;;
23206;SDS011;11773;52.570;13.052;2024-02-28T06:24:11;2.63;;;2.17;;
23206;SDS011;11773;52.570;13.052;2024-02-28T06:26:40;2.10;;;1.67;;
23206;SDS011;11773;52.570;13.052;2024-02-28T06:29:12;3.10;;;2.53;;
23206;SDS011;11773;52.570;13.052;2024-02-28T06:31:42;2.17;;;1.97;;
23206;SDS011;11773;52.570;13.052;2024-02-28T06:34:11;2.00;;;1.80;;
23206;SDS011;11773;52.570;13.052;2024-02-28T06:36:41;2.60;;;2.37;;
23206;SDS011;11773;52.570;13.052;2024-02-28T06:39:11;2.67;;;2.20;;
23206;SDS011;11773;52.570;13.052;2024-02-28T06:41:40;2.40;;;2.00;;
23206;SDS011;11773;52.570;13.052;2024-02-28T06:44:10;2.97;;;2.63;;
23206;SDS011;11773;52.570;13.052;2024-02-28T06:46:39;3.43;;;3.07;;
23206;SDS011;11773;52.570;13.052;2024-02-28T06:49:09;2.80;;;2.37;;
23206;SDS011;11773;52.570;13.052;2024-02-28T06:51:38;2.60;;;2.20;;
23206;SDS011;11773;52.570;13.052;2024-02-28T06:54:08;3.67;;;2.93;;
23206;SDS011;11773;52.570;13.052;2024-02-28T06:56:38;3.57;;;2.80;;
23206;SDS011;11773;52.570;13.052;2024-02-28T06:59:07;2.60;;;2.40;;
23206;SDS011;11773;52.570;13.052;2024-02-28T07:01:37;3.07;;;2.70;;
23206;SDS011;11773;52.570;13.052;2024-02-28T07:04:07;3.17;;;2.50;;
23206;SDS011;11773;52.570;13.052;2024-02-28T07:06:37;2.27;;;1.90;;
23206;SDS011;11773;52.570;13.052;2024-02-28T07:09:10;1.80;;;1.67;;
23206;SDS011;11773;52.570;13.052;2024-02-28T07:11:41;2.77;;;2.23;;
23206;SDS011;11773;52.570;13.052;2024-02-28T07:14:11;2.73;;;2.40;;
23206;SDS011;11773;52.570;13.052;2024-02-28T07:16:42;2.70;;;2.50;;
23206;SDS011;11773;52.570;13.052;2024-02-28T07:19:12;2.80;;;2.37;;
23206;SDS011;11773;52.570;13.052;2024-02-28T07:21:42;2.60;;;2.10;;
23206;SDS011;11773;52.570;13.052;2024-02-28T07:24:12;2.27;;;2.07;;
23206;SDS011;11773;52.570;13.052;2024-02-28T07:26:42;2.43;;;2.07;;
23206;SDS011;11773;52.570;13.052;2024-02-28T07:29:11;2.47;;;2.17;;
23206;SDS011;11773;52.570;13.052;2024-02-28T07:31:41;3.73;;;2.33;;
23206;SDS011;11773;52.570;13.052;2024-02-28T07:34:12;2.80;;;2.40;;
23206;SDS011;11773;52.570;13.052;2024-02-28T07:36:42;2.43;;;1.97;;
23206;SDS011;11773;52.570;13.052;2024-02-28T07:39:11;2.70;;;2.30;;
23206;SDS011;11773;52.570;13.052;2024-02-28T07:41:41;2.70;;;2.40;;
23206;SDS011;11773;52.570;13.052;2024-02-28T07:44:11;2.90;;;2.43;;
23206;SDS011;11773;52.570;13.052;2024-02-28T07:46:41;3.10;;;2.50;;
23206;SDS011;11773;52.570;13.052;2024-02-28T07:49:11;3.10;;;2.70;;
23206;SDS011;11773;52.570;13.052;2024-02-28T07:51:41;2.63;;;2.37;;
23206;SDS011;11773;52.570;13.052;2024-02-28T07:54:11;2.20;;;2.00;;
23206;SDS011;11773;52.570;13.052;2024-02-28T07:56:40;2.67;;;2.00;;
23206;SDS011;11773;52.570;13.052;2024-02-28T07:59:11;4.30;;;3.60;;
23206;SDS011;11773;52.570;13.052;2024-02-28T08:01:41;2.73;;;2.37;;
23206;SDS011;11773;52.570;13.052;2024-02-28T08:04:12;3.10;;;2.80;;
23206;SDS011;11773;52.570;13.052;2024-02-28T08:06:42;2.67;;;2.20;;
23206;SDS011;11773;52.570;13.052;2024-02-28T08:09:11;2.70;;;2.20;;
23206;SDS011;11773;52.570;13.052;2024-02-28T08:11:42;2.23;;;2.03;;
23206;SDS011;11773;52.570;13.052;2024-02-28T08:14:12;3.00;;;2.57;;
23206;SDS011;11773;52.570;13.052;2024-02-28T08:16:41;3.80;;;3.03;;
23206;SDS011;11773;52.570;13.052;2024-02-28T08:19:11;3.10;;;2.80;;
23206;SDS011;11773;52.570;13.052;2024-02-28T08:21:40;2.90;;;2.63;;
23206;SDS011;11773;52.570;13.052;2024-02-28T08:24:10;2.53;;;2.30;;
23206;SDS011;11773;52.570;13.052;2024-02-28T08:26:40;2.60;;;2.37;;
23206;SDS011;11773;52.570;13.052;2024-02-28T08:29:09;4.63;;;3.53;;
23206;SDS011;11773;52.570;13.052;2024-02-28T08:31:39;3.37;;;2.67;;
23206;SDS011;11773;52.570;13.052;2024-02-28T08:34:13;3.77;;;2.80;;
23206;SDS011;11773;52.570;13.052;2024-02-28T08:36:42;2.50;;;2.20;;
23206;SDS011;11773;52.570;13.052;2024-02-28T08:39:12;3.00;;;2.43;;
23206;SDS011;11773;52.570;13.052;2024-02-28T08:41:42;3.07;;;2.50;;
23206;SDS011;11773;52.570;13.052;2024-02-28T08:44:12;2.80;;;2.47;;
23206;SDS011;11773;52.570;13.052;2024-02-28T08:46:41;3.03;;;2.43;;
23206;SDS011;11773;52.570;13.052;2024-02-28T08:49:11;2.93;;;2.50;;
23206;SDS011;11773;52.570;13.052;2024-02-28T08:51:42;3.17;;;2.63;;
23206;SDS011;11773;52.570;13.052;2024-02-28T08:54:13;3.00;;;2.60;;
23206;SDS011;11773;52.570;13.052;2024-02-28T08:56:43;3.53;;;2.77;;
23206;SDS011;11773;52.570;13.052;2024-02-28T08:59:14;3.03;;;2.50;;
23206;SDS011;11773;52.570;13.052;2024-02-28T09:01:43;3.60;;;3.10;;
23206;SDS011;11773;52.570;13.052;2024-02-28T09:04:13;3.37;;;2.57;;
23206;SDS011;11773;52.570;13.052;2024-02-28T09:06:43;3.53;;;2.77;;
23206;SDS011;11773;52.570;13.052;2024-02-28T09:09:12;3.20;;;2.87;;
23206;SDS011;11773;52.570;13.052;2024-02-28T09:11:42;3.33;;;2.70;;
23206;SDS011;11773;52.570;13.052;2024-02-28T09:14:11;3.50;;;2.90;;
23206;SDS011;11773;52.570;13.052;2024-02-28T09:16:41;3.53;;;2.60;;
23206;SDS011;11773;52.570;13.052;2024-02-28T09:19:10;3.00;;;2.50;;
23206;SDS011;11773;52.570;13.052;2024-02-28T09:21:40;2.80;;;2.47;;
23206;SDS011;11773;52.570;13.052;2024-02-28T09:24:09;3.57;;;2.87;;
23206;SDS011;11773;52.570;13.052;2024-02-28T09:26:39;3.13;;;2.80;;
23206;SDS011;11773;52.570;13.052;2024-02-28T09:29:09;3.20;;;2.80;;
23206;SDS011;11773;52.570;13.052;2024-02-28T09:31:38;3.90;;;3.10;;
23206;SDS011;11773;52.570;13.052;2024-02-28T09:34:08;3.83;;;2.83;;
23206;SDS011;11773;52.570;13.052;2024-02-28T09:36:44;3.80;;;2.87;;
23206;SDS011;11773;52.570;13.052;2024-02-28T09:39:15;3.30;;;2.53;;
23206;SDS011;11773;52.570;13.052;2024-02-28T09:41:47;3.17;;;2.53;;
23206;SDS011;11773;52.570;13.052;2024-02-28T09:44:17;4.00;;;3.20;;
23206;SDS011;11773;52.570;13.052;2024-02-28T09:46:50;3.47;;;3.00;;
23206;SDS011;11773;52.570;13.052;2024-02-28T09:49:20;4.43;;;3.43;;
23206;SDS011;11773;52.570;13.052;2024-02-28T09:51:53;4.10;;;3.07;;
23206;SDS011;11773;52.570;13.052;2024-02-28T09:54:25;3.37;;;3.07;;
23206;SDS011;11773;52.570;13.052;2024-02-28T09:56:55;4.00;;;3.27;;
23206;SDS011;11773;52.570;13.052;2024-02-28T09:59:24;4.17;;;3.20;;
23206;SDS011;11773;52.570;13.052;2024-02-28T10:01:57;4.07;;;3.50;;
23206;SDS011;11773;52.570;13.052;2024-02-28T10:04:29;4.23;;;3.50;;
23206;SDS011;11773;52.570;13.052;2024-02-28T10:06:59;3.47;;;2.93;;
23206;SDS011;11773;52.570;13.052;2024-02-28T10:09:41;4.53;;;3.70;;
23206;SDS011;11773;52.570;13.052;2024-02-28T10:12:11;3.43;;;2.90;;
23206;SDS011;11773;52.570;13.052;2024-02-28T10:14:40;3.50;;;2.87;;
23206;SDS011;11773;52.570;13.052;2024-02-28T10:17:10;2.60;;;2.07;;
23206;SDS011;11773;52.570;13.052;2024-02-28T10:19:39;3.00;;;2.60;;
23206;SDS011;11773;52.570;13.052;2024-02-28T10:22:09;3.20;;;2.87;;
23206;SDS011;11773;52.570;13.052;2024-02-28T10:24:38;4.17;;;3.20;;
23206;SDS011;11773;52.570;13.052;2024-02-28T10:27:08;5.13;;;4.17;;
23206;SDS011;11773;52.570;13.052;2024-02-28T10:29:38;6.00;;;4.30;;
23206;SDS011;11773;52.570;13.052;2024-02-28T10:32:09;4.83;;;3.80;;
23206;SDS011;11773;52.570;13.052;2024-02-28T10:34:40;3.30;;;2.77;;
23206;SDS011;11773;52.570;13.052;2024-02-28T10:37:10;4.17;;;2.97;;
23206;SDS011;11773;52.570;13.052;2024-02-28T10:39:41;3.27;;;2.73;;
23206;SDS011;11773;52.570;13.052;2024-02-28T10:42:12;4.70;;;4.20;;
23206;SDS011;11773;52.570;13.052;2024-02-28T10:44:43;5.60;;;4.00;;
23206;SDS011;11773;52.570;13.052;2024-02-28T10:47:17;3.70;;;3.30;;
23206;SDS011;11773;52.570;13.052;2024-02-28T10:49:47;3.60;;;2.97;;
23206;SDS011;11773;52.570;13.052;2024-02-28T10:52:16;3.83;;;3.00;;
23206;SDS011;11773;52.570;13.052;2024-02-28T10:54:52;4.17;;;3.23;;
23206;SDS011;11773;52.570;13.052;2024-02-28T10:57:27;3.73;;;3.33;;
23206;SDS011;11773;52.570;13.052;2024-02-28T10:59:58;2.87;;;2.50;;
23206;SDS011;11773;52.570;13.052;2024-02-28T11:02:31;3.20;;;2.90;;
23206;SDS011;11773;52.570;13.052;2024-02-28T11:05:01;3.97;;;3.40;;
23206;SDS011;11773;52.570;13.052;2024-02-28T11:07:31;4.33;;;3.67;;
23206;SDS011;11773;52.570;13.052;2024-02-28T11:10:05;4.07;;;3.53;;
23206;SDS011;11773;52.570;13.052;2024-02-28T11:12:35;2.87;;;2.53;;
23206;SDS011;11773;52.570;13.052;2024-02-28T11:18:13;3.43;;;2.83;;
23206;SDS011;11773;52.570;13.052;2024-02-28T11:20:43;3.50;;;2.87;;
23206;SDS011;11773;52.570;13.052;2024-02-28T11:23:18;3.40;;;2.87;;
23206;SDS011;11773;52.570;13.052;2024-02-28T11:25:47;2.97;;;2.53;;
23206;SDS011;11773;52.570;13.052;2024-02-28T11:28:17;2.87;;;2.57;;
23206;SDS011;11773;52.570;13.052;2024-02-28T11:30:48;3.67;;;2.70;;
23206;SDS011;11773;52.570;13.052;2024-02-28T11:33:18;3.77;;;3.03;;
23206;SDS011;11773;52.570;13.052;2024-02-28T11:35:55;3.60;;;2.80;;
23206;SDS011;11773;52.570;13.052;2024-02-28T11:38:25;3.50;;;3.00;;
23206;SDS011;11773;52.570;13.052;2024-02-28T11:40:55;3.33;;;2.80;;
23206;SDS011;11773;52.570;13.052;2024-02-28T11:43:25;3.43;;;2.87;;
23206;SDS011;11773;52.570;13.052;2024-02-28T11:45:56;3.53;;;2.87;;
23206;SDS011;11773;52.570;13.052;2024-02-28T11:48:27;3.67;;;3.07;;
23206;SDS011;11773;52.570;13.052;2024-02-28T11:50:58;4.27;;;3.20;;
23206;SDS011;11773;52.570;13.052;2024-02-28T11:53:27;4.60;;;3.57;;
23206;SDS011;11773;52.570;13.052;2024-02-28T11:55:57;3.40;;;2.87;;
23206;SDS011;11773;52.570;13.052;2024-02-28T11:58:27;5.00;;;3.80;;
23206;SDS011;11773;52.570;13.052;2024-02-28T12:00:57;3.40;;;2.85;;
23206;SDS011;11773;52.570;13.052;2024-02-28T12:03:27;3.50;;;3.10;;
23206;SDS011;11773;52.570;13.052;2024-02-28T12:05:56;4.23;;;3.10;;
23206;SDS011;11773;52.570;13.052;2024-02-28T12:08:27;3.50;;;2.80;;
23206;SDS011;11773;52.570;13.052;2024-02-28T12:11:05;3.20;;;2.60;;
23206;SDS011;11773;52.570;13.052;2024-02-28T12:13:37;3.23;;;2.83;;
23206;SDS011;11773;52.570;13.052;2024-02-28T12:16:07;4.30;;;3.70;;
23206;SDS011;11773;52.570;13.052;2024-02-28T12:18:37;3.97;;;3.20;;
23206;SDS011;11773;52.570;13.052;2024-02-28T12:21:08;5.37;;;4.17;;
23206;SDS011;11773;52.570;13.052;2024-02-28T12:23:38;3.00;;;2.70;;
23206;SDS011;11773;52.570;13.052;2024-02-28T12:26:08;3.43;;;2.93;;
23206;SDS011;11773;52.570;13.052;2024-02-28T12:28:38;3.27;;;2.70;;
23206;SDS011;11773;52.570;13.052;2024-02-28T12:31:07;3.10;;;2.80;;
23206;SDS011;11773;52.570;13.052;2024-02-28T12:33:39;3.73;;;2.77;;
23206;SDS011;11773;52.570;13.052;2024-02-28T12:36:09;3.03;;;2.53;;
23206;SDS011;11773;52.570;13.052;2024-02-28T12:38:39;2.83;;;2.47;;
23206;SDS011;11773;52.570;13.052;2024-02-28T12:41:08;3.17;;;2.60;;
23206;SDS011;11773;52.570;13.052;2024-02-28T12:43:39;3.87;;;2.90;;
23206;SDS011;11773;52.570;13.052;2024-02-28T12:46:08;3.10;;;2.80;;
23206;SDS011;11773;52.570;13.052;2024-02-28T12:48:38;3.50;;;2.93;;
23206;SDS011;11773;52.570;13.052;2024-02-28T12:51:13;3.70;;;2.83;;
23206;SDS011;11773;52.570;13.052;2024-02-28T12:54:03;3.13;;;2.73;;
23206;SDS011;11773;52.570;13.052;2024-02-28T12:56:32;3.53;;;2.90;;
23206;SDS011;11773;52.570;13.052;2024-02-28T12:59:05;2.97;;;2.50;;
23206;SDS011;11773;52.570;13.052;2024-02-28T13:01:35;3.13;;;2.57;;
23206;SDS011;11773;52.570;13.052;2024-02-28T13:04:05;3.57;;;2.50;;
23206;SDS011;11773;52.570;13.052;2024-02-28T13:06:35;3.57;;;3.07;;
23206;SDS011;11773;52.570;13.052;2024-02-28T13:09:05;3.30;;;3.00;;
23206;SDS011;11773;52.570;13.052;2024-02-28T13:11:36;2.83;;;2.57;;
23206;SDS011;11773;52.570;13.052;2024-02-28T13:14:06;2.57;;;2.37;;
23206;SDS011;11773;52.570;13.052;2024-02-28T13:16:37;2.80;;;2.43;;
23206;SDS011;11773;52.570;13.052;2024-02-28T13:19:07;2.73;;;2.50;;
23206;SDS011;11773;52.570;13.052;2024-02-28T13:21:37;2.90;;;2.50;;
23206;SDS011;11773;52.570;13.052;2024-02-28T13:24:07;2.60;;;2.30;;
23206;SDS011;11773;52.570;13.052;2024-02-28T13:26:36;2.80;;;2.50;;
23206;SDS011;11773;52.570;13.052;2024-02-28T13:29:06;2.60;;;2.40;;
23206;SDS011;11773;52.570;13.052;2024-02-28T13:31:36;2.10;;;1.90;;
23206;SDS011;11773;52.570;13.052;2024-02-28T13:34:05;2.30;;;2.10;;
23206;SDS011;11773;52.570;13.052;2024-02-28T13:36:35;2.40;;;2.00;;
23206;SDS011;11773;52.570;13.052;2024-02-28T13:39:06;3.40;;;3.00;;
23206;SDS011;11773;52.570;13.052;2024-02-28T13:41:44;2.87;;;2.43;;
23206;SDS011;11773;52.570;13.052;2024-02-28T13:44:10;3.07;;;2.77;;
23206;SDS011;11773;52.570;13.052;2024-02-28T13:46:39;3.23;;;2.60;;
23206;SDS011;11773;52.570;13.052;2024-02-28T13:49:09;4.50;;;3.33;;
23206;SDS011;11773;52.570;13.052;2024-02-28T13:51:40;4.87;;;3.87;;
23206;SDS011;11773;52.570;13.052;2024-02-28T13:54:10;4.00;;;3.33;;
23206;SDS011;11773;52.570;13.052;2024-02-28T13:56:40;3.93;;;3.50;;
23206;SDS011;11773;52.570;13.052;2024-02-28T13:59:09;3.20;;;2.90;;
23206;SDS011;11773;52.570;13.052;2024-02-28T14:01:39;2.93;;;2.53;;
23206;SDS011;11773;52.570;13.052;2024-02-28T14:04:09;2.70;;;2.20;;
23206;SDS011;11773;52.570;13.052;2024-02-28T14:06:39;2.13;;;1.83;;
23206;SDS011;11773;52.570;13.052;2024-02-28T14:09:08;2.37;;;2.17;;
23206;SDS011;11773;52.570;13.052;2024-02-28T14:11:38;2.33;;;2.13;;
23206;SDS011;11773;52.570;13.052;2024-02-28T14:14:07;1.83;;;1.73;;
23206;SDS011;11773;52.570;13.052;2024-02-28T14:16:39;2.23;;;1.87;;
23206;SDS011;11773;52.570;13.052;2024-02-28T14:19:10;2.10;;;1.90;;
23206;SDS011;11773;52.570;13.052;2024-02-28T14:21:40;2.33;;;2.00;;
23206;SDS011;11773;52.570;13.052;2024-02-28T14:24:09;2.40;;;2.20;;
23206;SDS011;11773;52.570;13.052;2024-02-28T14:26:39;3.50;;;2.90;;
23206;SDS011;11773;52.570;13.052;2024-02-28T14:29:09;2.97;;;2.67;;
23206;SDS011;11773;52.570;13.052;2024-02-28T14:31:38;2.30;;;2.10;;
23206;SDS011;11773;52.570;13.052;2024-02-28T14:34:09;1.90;;;1.80;;
23206;SDS011;11773;52.570;13.052;2024-02-28T14:36:38;2.20;;;2.00;;
23206;SDS011;11773;52.570;13.052;2024-02-28T14:39:08;2.37;;;2.10;;
23206;SDS011;11773;52.570;13.052;2024-02-28T14:41:39;2.53;;;2.20;;
23206;SDS011;11773;52.570;13.052;2024-02-28T14:44:11;2.60;;;2.20;;
23206;SDS011;11773;52.570;13.052;2024-02-28T14:46:42;2.10;;;1.90;;
23206;SDS011;11773;52.570;13.052;2024-02-28T14:49:12;1.70;;;1.60;;
23206;SDS011;11773;52.570;13.052;2024-02-28T14:51:43;2.73;;;2.53;;
23206;SDS011;11773;52.570;13.052;2024-02-28T14:54:17;2.23;;;1.97;;